createdAt,value
2019-02-04T00:00:41.865Z,8.93
2019-02-04T00:03:13.482Z,6.62
2019-02-04T00:05:43.771Z,6.78
2019-02-04T00:08:13.858Z,5.47
2019-02-04T00:10:44.840Z,9.78
2019-02-04T00:13:14.943Z,6.10
2019-02-04T00:15:46.529Z,10.00
2019-02-04T00:18:16.975Z,8.03
2019-02-04T00:20:47.690Z,7.97
2019-02-04T00:23:18.543Z,7.42
2019-02-04T00:25:48.786Z,6.03
2019-02-04T00:28:18.840Z,7.65
2019-02-04T00:30:49.172Z,9.95
2019-02-04T00:33:19.544Z,6.58
2019-02-04T00:35:49.873Z,8.38
2019-02-04T00:38:19.936Z,10.55
2019-02-04T00:40:50.133Z,5.45
2019-02-04T00:43:20.267Z,8.53
2019-02-04T00:45:50.405Z,5.58
2019-02-04T00:48:20.709Z,11.10
2019-02-04T00:50:51.285Z,5.95
2019-02-04T00:53:21.645Z,9.43
2019-02-04T00:55:51.705Z,8.18
2019-02-04T00:58:22.130Z,9.43
2019-02-04T01:00:52.197Z,8.33
2019-02-04T01:03:22.645Z,9.53
2019-02-04T01:05:52.961Z,6.20
2019-02-04T01:08:24.293Z,8.90
2019-02-04T01:10:55.353Z,8.63
2019-02-04T01:13:25.449Z,9.35
2019-02-04T01:15:56.201Z,10.88
2019-02-04T01:18:27.525Z,9.08
2019-02-04T01:20:57.903Z,8.98
2019-02-04T01:23:28.258Z,7.30
2019-02-04T01:25:58.313Z,8.60
2019-02-04T01:28:28.673Z,7.75
2019-02-04T01:30:58.973Z,8.35
2019-02-04T01:33:29.329Z,8.25
2019-02-04T01:35:59.437Z,8.33
2019-02-04T01:38:29.741Z,6.60
2019-02-04T01:41:00.361Z,10.63
2019-02-04T01:43:31.294Z,7.12
2019-02-04T01:46:01.639Z,13.83
2019-02-04T01:48:31.741Z,7.75
2019-02-04T01:51:03.171Z,7.25
2019-02-04T01:53:34.273Z,9.05
2019-02-04T01:56:04.749Z,6.90
2019-02-04T01:58:34.797Z,8.60
2019-02-04T02:01:05.345Z,7.10
2019-02-04T02:03:35.693Z,7.80
2019-02-04T02:06:05.817Z,9.55
2019-02-04T02:08:36.165Z,7.67
2019-02-04T02:11:08.638Z,8.23
2019-02-04T02:13:38.703Z,8.88
2019-02-04T02:16:09.830Z,6.28
2019-02-04T02:18:40.149Z,8.45
2019-02-04T02:21:10.537Z,8.98
2019-02-04T02:23:40.854Z,7.90
2019-02-04T02:26:10.960Z,11.12
2019-02-04T02:28:41.257Z,7.20
2019-02-04T02:31:11.602Z,9.53
2019-02-04T02:33:41.773Z,12.03
2019-02-04T02:36:11.905Z,11.15
2019-02-04T02:38:42.289Z,11.60
2019-02-04T02:41:12.430Z,11.40
2019-02-04T02:43:42.552Z,8.23
2019-02-04T02:46:12.690Z,7.97
2019-02-04T02:48:43.053Z,12.47
2019-02-04T02:51:13.373Z,10.68
2019-02-04T02:53:43.722Z,9.68
2019-02-04T02:56:37.047Z,10.43
2019-02-04T02:59:07.762Z,11.10
2019-02-04T03:01:38.291Z,12.10
2019-02-04T03:04:08.927Z,9.83
2019-02-04T03:06:39.096Z,14.45
2019-02-04T03:09:09.338Z,10.20
2019-02-04T03:11:40.553Z,14.38
2019-02-04T03:14:10.885Z,11.05
2019-02-04T03:16:40.981Z,9.83
2019-02-04T03:19:11.277Z,12.58
2019-02-04T03:21:41.807Z,11.18
2019-02-04T03:24:16.208Z,16.37
2019-02-04T03:26:46.791Z,9.78
2019-02-04T03:29:17.243Z,12.55
2019-02-04T03:31:48.123Z,8.85
2019-02-04T03:34:18.421Z,8.10
2019-02-04T03:36:48.867Z,14.53
2019-02-04T03:39:18.935Z,13.05
2019-02-04T03:41:51.671Z,10.85
2019-02-04T03:44:21.970Z,12.15
2019-02-04T03:46:52.081Z,11.48
2019-02-04T03:49:22.167Z,13.28
2019-02-04T03:51:52.270Z,12.15
2019-02-04T03:54:22.330Z,14.05
2019-02-04T03:56:52.699Z,10.15
2019-02-04T03:59:23.025Z,16.42
2019-02-04T04:01:53.470Z,12.00
2019-02-04T04:04:24.015Z,15.40
2019-02-04T04:06:54.370Z,17.35
2019-02-04T04:09:24.758Z,16.12
2019-02-04T04:11:55.094Z,15.03
2019-02-04T04:14:25.218Z,18.60
2019-02-04T04:16:55.792Z,13.88
2019-02-04T04:19:26.002Z,17.48
2019-02-04T04:21:56.090Z,11.70
2019-02-04T04:24:26.753Z,14.38
2019-02-04T04:26:57.297Z,20.65
2019-02-04T04:29:27.844Z,19.02
2019-02-04T04:31:57.971Z,22.05
2019-02-04T04:34:28.598Z,17.98
2019-02-04T04:37:06.858Z,20.43
2019-02-04T04:39:37.147Z,24.37
2019-02-04T04:42:08.148Z,23.60
2019-02-04T04:44:38.677Z,24.60
2019-02-04T04:47:09.079Z,19.80
2019-02-04T04:49:39.649Z,20.10
2019-02-04T04:52:10.593Z,27.05
2019-02-04T04:54:41.654Z,25.60
2019-02-04T04:57:13.006Z,33.38
2019-02-04T04:59:43.827Z,24.85
2019-02-04T05:02:14.397Z,24.12
2019-02-04T05:04:44.828Z,20.55
2019-02-04T05:07:15.407Z,24.72
2019-02-04T05:09:47.639Z,25.10
2019-02-04T05:12:18.074Z,23.65
2019-02-04T05:14:48.785Z,21.35
2019-02-04T05:17:19.553Z,25.48
2019-02-04T05:19:50.642Z,27.20
2019-02-04T05:22:21.378Z,28.45
2019-02-04T05:24:51.873Z,30.23
2019-02-04T05:27:22.438Z,25.88
2019-02-04T05:29:53.408Z,24.15
2019-02-04T05:32:23.882Z,23.57
2019-02-04T05:34:57.400Z,36.40
2019-02-04T05:37:27.539Z,29.70
2019-02-04T05:39:57.855Z,27.62
2019-02-04T05:42:30.225Z,31.37
2019-02-04T05:45:00.538Z,23.77
2019-02-04T05:47:31.022Z,24.45
2019-02-04T05:50:02.050Z,26.93
2019-02-04T05:52:32.761Z,31.95
2019-02-04T05:55:03.010Z,37.88
2019-02-04T05:57:33.690Z,31.52
2019-02-04T06:00:05.562Z,35.13
2019-02-04T06:02:35.952Z,39.40
2019-02-04T06:05:09.491Z,30.12
2019-02-04T06:07:40.222Z,30.10
2019-02-04T06:10:10.799Z,32.75
2019-02-04T06:12:41.668Z,30.55
2019-02-04T06:15:12.503Z,33.30
2019-02-04T06:17:43.628Z,33.90
2019-02-04T06:20:16.291Z,32.90
2019-02-04T06:22:47.599Z,29.45
2019-02-04T06:25:18.535Z,30.05
2019-02-04T06:27:49.029Z,29.85
2019-02-04T06:30:19.704Z,29.23
2019-02-04T06:33:01.756Z,35.15
2019-02-04T06:35:44.481Z,32.00
2019-02-04T06:38:25.058Z,29.65
2019-02-04T06:41:14.597Z,34.98
2019-02-04T06:43:57.004Z,36.20
2019-02-04T06:46:39.189Z,35.13
2019-02-04T06:49:21.677Z,32.95
2019-02-04T06:52:04.353Z,28.45
2019-02-04T06:54:44.987Z,28.50
2019-02-04T06:57:34.633Z,38.23
2019-02-04T07:00:17.210Z,35.58
2019-02-04T07:02:59.523Z,30.50
2019-02-04T07:05:43.832Z,27.07
2019-02-04T07:08:25.669Z,27.52
2019-02-04T07:11:08.342Z,22.35
2019-02-04T07:13:50.765Z,32.80
2019-02-04T07:16:32.625Z,26.55
2019-02-04T07:19:23.714Z,26.52
2019-02-04T07:21:59.760Z,22.65
2019-02-04T07:24:43.156Z,31.10
2019-02-04T07:27:32.860Z,27.55
2019-02-04T07:30:15.178Z,23.95
2019-02-04T07:32:57.670Z,26.30
2019-02-04T07:35:40.219Z,27.60
2019-02-04T07:38:21.924Z,24.57
2019-02-04T07:41:04.393Z,33.83
2019-02-04T07:43:46.689Z,26.68
2019-02-04T07:46:28.542Z,29.50
2019-02-04T07:49:11.249Z,27.20
2019-02-04T07:51:53.753Z,34.55
2019-02-04T07:54:36.219Z,25.95
2019-02-04T07:57:16.888Z,22.67
2019-02-04T08:00:08.945Z,21.02
2019-02-04T08:02:51.737Z,22.07
2019-02-04T08:05:34.176Z,21.93
2019-02-04T08:08:18.045Z,18.85
2019-02-04T08:11:01.049Z,20.20
2019-02-04T08:13:43.671Z,18.87
2019-02-04T08:16:26.289Z,22.73
2019-02-04T08:19:08.616Z,23.83
2019-02-04T08:21:50.801Z,21.80
2019-02-04T08:24:34.632Z,25.55
2019-02-04T08:27:17.041Z,22.80
2019-02-04T08:29:59.150Z,21.50
2019-02-04T08:32:41.609Z,25.02
2019-02-04T08:35:24.368Z,25.25
2019-02-04T08:38:06.759Z,29.07
2019-02-04T08:40:48.943Z,19.27
2019-02-04T08:43:30.824Z,27.55
2019-02-04T08:46:13.041Z,18.23
2019-02-04T08:48:55.500Z,23.98
2019-02-04T08:51:38.006Z,23.65
2019-02-04T08:54:19.984Z,23.25
2019-02-04T08:57:02.049Z,24.15
2019-02-04T08:59:44.930Z,22.82
2019-02-04T09:02:27.286Z,26.00
2019-02-04T09:05:09.262Z,23.55
2019-02-04T09:07:52.026Z,32.78
2019-02-04T09:10:34.322Z,21.12
2019-02-04T09:13:16.666Z,25.43
2019-02-04T09:15:59.119Z,26.82
2019-02-04T09:18:44.989Z,28.15
2019-02-04T09:21:26.033Z,24.82
2019-02-04T09:24:08.579Z,26.65
2019-02-04T09:26:51.214Z,25.62
2019-02-04T09:29:33.461Z,29.30
2019-02-04T09:32:15.889Z,24.57
2019-02-04T09:34:57.995Z,25.65
2019-02-04T09:37:40.125Z,19.80
2019-02-04T09:40:22.176Z,21.02
2019-02-04T09:43:05.208Z,25.00
2019-02-04T09:45:47.870Z,22.65
2019-02-04T09:48:30.345Z,25.72
2019-02-04T09:51:12.913Z,18.12
2019-02-04T09:53:55.009Z,23.87
2019-02-04T09:56:37.682Z,24.92
2019-02-04T09:59:20.144Z,20.00
2019-02-04T10:02:01.169Z,20.57
2019-02-04T10:07:56.659Z,26.55
2019-02-04T10:10:38.846Z,15.28
2019-02-04T10:13:19.490Z,16.37
2019-02-04T10:16:11.598Z,15.13
2019-02-04T10:19:10.509Z,20.77
2019-02-04T10:22:00.042Z,12.53
2019-02-04T10:25:01.861Z,15.45
2019-02-04T10:27:46.225Z,14.23
2019-02-04T10:30:28.286Z,19.23
2019-02-04T10:33:11.212Z,16.67
2019-02-04T10:35:53.569Z,15.40
2019-02-04T10:38:35.829Z,24.57
2019-02-04T10:41:18.267Z,13.30
2019-02-04T10:44:00.975Z,14.10
2019-02-04T10:46:43.241Z,23.23
2019-02-04T10:49:25.168Z,20.93
2019-02-04T10:52:11.454Z,16.57
2019-02-04T10:54:53.249Z,15.50
2019-02-04T10:57:40.604Z,13.65
2019-02-04T11:00:20.046Z,15.77
2019-02-04T11:03:01.917Z,12.30
2019-02-04T11:05:44.074Z,21.67
2019-02-04T11:08:25.886Z,20.87
2019-02-04T11:11:09.630Z,20.33
2019-02-04T11:13:52.116Z,16.33
2019-02-04T11:16:34.130Z,22.17
2019-02-04T11:19:16.318Z,24.80
2019-02-04T11:21:58.241Z,18.73
2019-02-04T11:24:40.668Z,19.50
2019-02-04T11:27:23.379Z,19.97
2019-02-04T11:30:26.277Z,14.73
2019-02-04T11:33:09.433Z,14.67
2019-02-04T11:35:51.568Z,10.83
2019-02-04T11:38:34.267Z,18.03
2019-02-04T11:41:16.890Z,17.47
2019-02-04T11:43:58.683Z,14.73
2019-02-04T11:46:41.829Z,11.23
2019-02-04T11:49:24.407Z,12.67
2019-02-04T11:52:06.831Z,14.47
2019-02-04T11:54:49.144Z,14.50
2019-02-04T11:57:31.029Z,12.83
2019-02-04T12:00:13.453Z,14.03
2019-02-04T12:02:56.877Z,13.23
2019-02-04T12:05:39.292Z,13.17
2019-02-04T12:08:21.691Z,14.23
2019-02-04T12:11:03.537Z,12.20
2019-02-04T12:13:46.443Z,16.43
2019-02-04T12:16:33.331Z,9.27
2019-02-04T12:19:14.534Z,13.67
2019-02-04T12:21:48.388Z,13.90
2019-02-04T12:24:20.257Z,12.67
2019-02-04T12:27:31.530Z,12.53
2019-02-04T12:29:57.625Z,10.83
2019-02-04T12:32:45.618Z,16.00
2019-02-04T12:35:36.522Z,10.03
2019-02-04T12:41:40.564Z,11.43
2019-02-04T12:44:22.023Z,11.50
2019-02-04T12:47:01.820Z,8.60
2019-02-04T12:49:47.540Z,15.57
2019-02-04T12:52:37.751Z,17.80
2019-02-04T12:55:34.067Z,13.60
2019-02-04T12:58:40.786Z,14.10
2019-02-04T13:01:11.907Z,17.30
2019-02-04T13:03:43.330Z,18.70
2019-02-04T13:06:14.384Z,16.30
2019-02-04T13:08:45.007Z,16.37
2019-02-04T13:11:15.360Z,15.45
2019-02-04T13:13:46.079Z,23.87
2019-02-04T13:16:17.195Z,15.30
2019-02-04T13:18:48.404Z,17.47
2019-02-04T13:21:22.984Z,22.62
2019-02-04T13:23:54.072Z,18.83
2019-02-04T13:26:30.370Z,27.27
2019-02-04T13:29:01.357Z,18.62
2019-02-04T13:31:31.647Z,20.03
2019-02-04T13:34:01.910Z,17.10
2019-02-04T13:36:32.689Z,17.10
2019-02-04T13:39:03.537Z,22.17
2019-02-04T13:41:35.697Z,22.70
2019-02-04T13:44:06.605Z,22.63
2019-02-04T13:46:37.064Z,21.67
2019-02-04T13:49:09.840Z,19.80
2019-02-04T13:51:40.960Z,21.80
2019-02-04T13:54:11.357Z,16.57
2019-02-04T13:56:41.441Z,24.80
2019-02-04T13:59:11.570Z,29.50
2019-02-04T14:01:42.544Z,21.12
2019-02-04T14:04:13.042Z,28.37
2019-02-04T14:06:43.491Z,19.60
2019-02-04T14:09:18.973Z,20.00
2019-02-04T14:11:50.561Z,21.00
2019-02-04T14:14:21.279Z,24.00
2019-02-04T14:16:51.901Z,19.57
2019-02-04T14:19:22.262Z,24.90
2019-02-04T14:21:52.742Z,19.98
2019-02-04T14:24:23.158Z,18.80
2019-02-04T14:26:54.453Z,25.27
2019-02-04T14:29:24.903Z,20.57
2019-02-04T14:31:55.353Z,26.40
2019-02-04T14:34:26.272Z,17.07
2019-02-04T14:36:56.715Z,22.07
2019-02-04T14:39:27.053Z,17.23
2019-02-04T14:41:58.138Z,18.17
2019-02-04T14:44:43.505Z,23.47
2019-02-04T14:47:25.963Z,15.30
2019-02-04T14:50:33.946Z,19.35
2019-02-04T14:53:31.960Z,14.73
2019-02-04T14:56:19.294Z,15.35
2019-02-04T14:59:11.939Z,22.23
2019-02-04T15:02:11.743Z,16.90
2019-02-04T15:05:14.421Z,18.47
2019-02-04T15:08:19.473Z,16.43
2019-02-04T15:11:07.122Z,10.15
2019-02-04T15:14:18.743Z,14.90
2019-02-04T15:17:03.730Z,10.93
2019-02-04T15:20:33.584Z,10.70
2019-02-04T15:23:27.006Z,14.45
2019-02-04T15:26:17.615Z,10.80
2019-02-04T15:29:20.512Z,11.35
2019-02-04T15:32:22.189Z,9.30
2019-02-04T15:35:19.602Z,12.13
2019-02-04T15:38:16.533Z,8.45
2019-02-04T15:41:25.083Z,12.17
2019-02-04T15:44:23.377Z,14.95
2019-02-04T15:47:11.806Z,18.62
2019-02-04T15:50:06.722Z,13.88
2019-02-04T15:52:45.165Z,10.43
2019-02-04T15:55:13.427Z,19.80
2019-02-04T15:57:43.924Z,15.63
2019-02-04T16:00:14.677Z,27.17
2019-02-04T16:02:44.750Z,11.97
2019-02-04T16:05:15.177Z,15.30
2019-02-04T16:07:45.282Z,18.60
2019-02-04T16:10:17.174Z,14.83
2019-02-04T16:12:48.637Z,19.00
2019-02-04T16:15:19.101Z,18.50
2019-02-04T16:17:49.496Z,17.25
2019-02-04T16:20:22.323Z,14.03
2019-02-04T16:22:58.729Z,14.85
2019-02-04T16:25:24.210Z,17.55
2019-02-04T16:27:55.319Z,13.75
2019-02-04T16:30:25.935Z,20.82
2019-02-04T16:32:56.621Z,22.15
2019-02-04T16:35:26.962Z,19.37
2019-02-04T16:37:57.353Z,20.15
2019-02-04T16:40:27.885Z,18.02
2019-02-04T16:42:58.020Z,20.02
2019-02-04T16:45:28.146Z,19.67
2019-02-04T16:47:58.450Z,19.65
2019-02-04T16:50:29.493Z,17.73
2019-02-04T16:53:10.088Z,14.38
2019-02-04T16:55:31.977Z,17.62
2019-02-04T16:58:02.087Z,21.45
2019-02-04T17:00:33.330Z,16.42
2019-02-04T17:03:03.481Z,28.65
2019-02-04T17:05:33.743Z,18.32
2019-02-04T17:08:04.634Z,15.80
2019-02-04T17:10:35.001Z,15.53
2019-02-04T17:13:05.202Z,22.17
2019-02-04T17:15:35.377Z,22.00
2019-02-04T17:18:07.005Z,27.82
2019-02-04T17:20:37.372Z,27.30
2019-02-04T17:23:07.429Z,21.35
2019-02-04T17:25:37.789Z,20.35
2019-02-04T17:28:08.046Z,21.95
2019-02-04T17:30:38.405Z,17.90
2019-02-04T17:33:08.731Z,16.12
2019-02-04T17:35:38.913Z,23.92
2019-02-04T17:38:10.411Z,18.75
2019-02-04T17:40:41.438Z,15.83
2019-02-04T17:43:19.534Z,15.53
2019-02-04T17:45:53.805Z,24.23
2019-02-04T17:48:24.388Z,21.07
2019-02-04T17:50:54.518Z,20.65
2019-02-04T17:53:33.836Z,19.23
2019-02-04T17:56:07.209Z,26.05
2019-02-04T17:58:37.513Z,19.37
2019-02-04T18:01:07.885Z,20.40
2019-02-04T18:03:38.329Z,21.87
2019-02-04T18:06:08.681Z,22.15
2019-02-04T18:08:39.793Z,14.45
2019-02-04T18:11:09.942Z,16.82
2019-02-04T18:13:41.281Z,18.85
2019-02-04T18:16:11.782Z,20.08
2019-02-04T18:18:48.285Z,22.27
2019-02-04T18:21:18.482Z,14.30
2019-02-04T18:23:48.540Z,21.00
2019-02-04T18:26:23.033Z,22.32
2019-02-04T18:28:53.773Z,19.57
2019-02-04T18:31:23.833Z,21.60
2019-02-04T18:33:54.168Z,18.23
2019-02-04T18:36:24.473Z,17.48
2019-02-04T18:38:56.885Z,20.15
2019-02-04T18:41:27.541Z,17.37
2019-02-04T18:43:59.392Z,21.00
2019-02-04T18:46:36.069Z,21.33
2019-02-04T18:49:06.497Z,17.60
2019-02-04T18:51:37.097Z,21.68
2019-02-04T18:54:07.544Z,25.97
2019-02-04T18:56:37.614Z,20.20
2019-02-04T18:59:07.886Z,21.40
2019-02-04T19:01:38.265Z,16.67
2019-02-04T19:04:08.837Z,18.82
2019-02-04T19:06:47.484Z,19.25
2019-02-04T19:09:11.273Z,19.42
2019-02-04T19:11:41.392Z,18.02
2019-02-04T19:14:11.719Z,17.25
2019-02-04T19:16:49.226Z,17.98
2019-02-04T19:19:19.357Z,18.42
2019-02-04T19:21:50.205Z,18.55
2019-02-04T19:24:20.500Z,15.63
2019-02-04T19:26:53.865Z,13.78
2019-02-04T19:29:27.653Z,15.10
2019-02-04T19:31:58.171Z,21.75
2019-02-04T19:34:28.310Z,19.60
2019-02-04T19:36:59.925Z,16.15
2019-02-04T19:39:30.580Z,17.23
2019-02-04T19:42:02.517Z,17.17
2019-02-04T19:44:32.847Z,15.90
2019-02-04T19:47:03.401Z,16.95
2019-02-04T19:49:33.673Z,13.18
2019-02-04T19:52:03.909Z,12.78
2019-02-04T19:54:34.253Z,19.45
2019-02-04T19:57:04.805Z,16.45
2019-02-04T19:59:34.865Z,15.43
2019-02-04T20:02:13.934Z,14.68
2019-02-04T20:04:44.041Z,14.18
2019-02-04T20:07:15.185Z,15.23
2019-02-04T20:09:53.270Z,18.77
2019-02-04T20:12:25.041Z,16.90
2019-02-04T20:14:56.161Z,19.65
2019-02-04T20:17:26.849Z,11.45
2019-02-04T20:19:56.969Z,19.00
2019-02-04T20:22:27.297Z,18.48
2019-02-04T20:24:57.573Z,15.15
2019-02-04T20:27:27.900Z,12.10
2019-02-04T20:30:11.150Z,13.35
2019-02-04T20:32:41.945Z,15.32
2019-02-04T20:35:12.564Z,14.30
2019-02-04T20:37:44.606Z,16.85
2019-02-04T20:40:16.640Z,15.88
2019-02-04T20:42:46.806Z,15.08
2019-02-04T20:45:17.266Z,15.45
2019-02-04T20:47:47.980Z,13.83
2019-02-04T20:50:31.874Z,11.55
2019-02-04T20:53:02.332Z,10.45
2019-02-04T20:55:36.725Z,12.43
2019-02-04T20:58:15.966Z,8.58
2019-02-04T21:00:51.901Z,10.98
2019-02-04T21:03:23.545Z,11.93
2019-02-04T21:05:53.629Z,11.15
2019-02-04T21:08:24.483Z,11.38
2019-02-04T21:10:54.776Z,12.18
2019-02-04T21:13:25.594Z,10.38
2019-02-04T21:15:55.989Z,11.48
2019-02-04T21:18:26.625Z,9.40
2019-02-04T21:20:56.977Z,7.70
2019-02-04T21:23:27.264Z,9.98
2019-02-04T21:25:57.669Z,12.03
2019-02-04T21:28:27.708Z,10.00
2019-02-04T21:30:58.045Z,9.15
2019-02-04T21:33:28.115Z,8.98
2019-02-04T21:35:58.196Z,9.53
2019-02-04T21:38:29.685Z,11.03
2019-02-04T21:41:00.029Z,8.08
2019-02-04T21:43:31.196Z,12.68
2019-02-04T21:46:01.578Z,10.70
2019-02-04T21:48:32.075Z,7.65
2019-02-04T21:51:03.401Z,9.60
2019-02-04T21:53:33.793Z,9.80
2019-02-04T21:56:03.909Z,7.80
2019-02-04T21:58:34.021Z,8.93
2019-02-04T22:01:04.825Z,10.35
2019-02-04T22:03:34.865Z,7.10
2019-02-04T22:06:05.092Z,6.37
2019-02-04T22:08:35.227Z,6.00
2019-02-04T22:11:05.388Z,6.30
2019-02-04T22:13:35.549Z,6.67
2019-02-04T22:16:05.969Z,9.00
2019-02-04T22:18:42.409Z,5.65
2019-02-04T22:21:12.746Z,7.15
2019-02-04T22:23:43.085Z,7.70
2019-02-04T22:26:13.433Z,9.93
2019-02-04T22:28:43.722Z,6.50
2019-02-04T22:31:13.814Z,9.08
2019-02-04T22:33:44.336Z,10.70
2019-02-04T22:36:14.365Z,7.10
2019-02-04T22:38:45.545Z,5.08
2019-02-04T22:41:15.657Z,4.83
2019-02-04T22:43:45.701Z,7.25
2019-02-04T22:46:15.777Z,7.20
2019-02-04T22:48:46.069Z,7.85
2019-02-04T22:51:20.353Z,8.20
2019-02-04T22:53:50.695Z,6.60
2019-02-04T22:56:20.749Z,8.08
2019-02-04T22:58:52.202Z,10.00
2019-02-04T23:01:46.451Z,4.70
2019-02-04T23:04:16.712Z,9.45
2019-02-04T23:06:47.341Z,6.97
2019-02-04T23:09:30.851Z,8.68
2019-02-04T23:12:01.031Z,13.15
2019-02-04T23:14:31.177Z,4.62
2019-02-04T23:17:01.937Z,7.65
2019-02-04T23:19:31.978Z,9.20
2019-02-04T23:22:02.382Z,8.35
2019-02-04T23:24:32.417Z,4.37
2019-02-04T23:27:02.748Z,5.85
2019-02-04T23:29:38.106Z,4.42
2019-02-04T23:32:08.266Z,4.08
2019-02-04T23:34:38.386Z,4.10
2019-02-04T23:37:08.423Z,5.50
2019-02-04T23:39:38.525Z,7.33
2019-02-04T23:42:08.907Z,6.62
2019-02-04T23:44:40.977Z,11.90
2019-02-04T23:47:11.057Z,4.92
2019-02-04T23:49:41.325Z,6.67
2019-02-04T23:52:11.433Z,4.75
2019-02-04T23:54:41.773Z,7.17
2019-02-04T23:57:12.210Z,4.33
2019-02-04T23:59:42.257Z,5.17
